• Join FlightAware (Why Join?)
  • Login
  • US Flag 
08:09PM EDT


 

Airport Tracker/Info


-or-


 

Live Flight TrackerFlight Track Log ✈ DAL3672 ✈ 26-Apr-2013 ✈ KMHT - KDTW

Flight Track Log - Related Links

Times and Time Zones

All times are in EDT time to prevent confusion due to time zone crossing. See the DAL3672 flight status page for this flight to view local times or setup timezone preferences in your user account.

Time Position Orientation Groundspeed Altitude Reporting Facility
EDT Latitude Longitude Course Direction KTS MPH feet Rate Location/Type
12:43PM 42.9167 -71.4167 270° West 163 188 1,700  Level KA90
12:44PM 42.8833 -71.4500 216° Southwest 207 238 3,900 2,700 Climbing KA90
12:45PM 42.9222 -71.5497 298° West 258 297 6,900 2,640 Climbing Boston Center
12:46PM 42.9500 -71.9235 270° West  Level FlightAware Approximate
12:46PM 42.9542 -71.6400 296° West 269 310 9,500  Level Boston Center
12:47PM 42.9501 -72.0472 270° West  Level FlightAware Approximate
12:47PM 42.9589 -71.7564 273° West 288 331 11,500  Level Boston Center
12:48PM 42.9500 -72.1710 270° West  Level FlightAware Approximate
12:48PM 42.9658 -71.8728 275° West 311 358 13,800  Level Boston Center
12:49PM 42.9728 -71.9975 274° West 327 376 15,000 600 Climbing Boston Center
12:50PM 42.9836 -72.1308 276° West 347 399 15,000  Level Boston Center
12:51PM 42.9922 -72.2725 275° West 367 422 15,100 1,200 Climbing Boston Center
12:52PM 43.0006 -72.4031 275° West 367 422 17,500 2,040 Climbing Boston Center
12:53PM 43.0111 -72.5339 276° West 361 415 19,200 1,800 Climbing Boston Center
12:54PM 43.0131 -72.6444 271° West 340 391 21,100 1,560 Climbing Boston Center
12:55PM 43.0189 -72.7694 274° West 335 386 22,400 1,140 Climbing Boston Center
12:56PM 43.0247 -72.9003 274° West 340 391 23,400 1,020 Climbing Boston Center
12:57PM 43.0386 -73.0508 277° West 352 405 24,500 1,020 Climbing Boston Center
12:58PM 43.0461 -73.1900 274° West 363 418 25,500 960 Climbing Boston Center
12:59PM 43.0514 -73.3267 273° West 368 423 26,500 900 Climbing Boston Center
01:00PM 43.0544 -73.4631 272° West 368 423 27,400 900 Climbing Boston Center
01:01PM 43.0614 -73.5967 274° West 368 423 28,400 840 Climbing Boston Center
01:02PM 43.0683 -73.7361 274° West 368 423 29,100 600 Climbing Boston Center
01:03PM 43.0750 -73.8697 274° West 368 423 29,600 420 Climbing Boston Center
01:04PM 43.0814 -74.0092 274° West 368 423 30,000 180 Climbing Boston Center
01:05PM 43.0878 -74.1517 274° West 368 423 30,000  Level Boston Center
01:06PM 43.0958 -74.3025 274° West 379 436 30,000  Level Boston Center
01:07PM 43.1039 -74.4506 274° West 390 449 30,000  Level Boston Center
01:08PM 43.1094 -74.6017 273° West 390 449 30,000  Level Boston Center
01:09PM 43.1147 -74.7497 273° West 395 455 30,000  Level Boston Center
01:10PM 43.1200 -74.9006 273° West 400 460 30,000  Level Boston Center
01:11PM 43.1250 -75.0544 273° West 405 466 30,000  Level Boston Center
01:12PM 43.1297 -75.2056 273° West 405 466 30,000  Level Boston Center
01:13PM 43.1367 -75.3453 274° West 405 466 30,000  Level Boston Center
01:14PM 43.1411 -75.4964 272° West 405 466 30,000  Level Boston Center
01:15PM 43.1453 -75.6475 272° West 405 466 30,000  Level Boston Center
01:16PM 43.1492 -75.8014 272° West 405 466 30,000  Level Boston Center
01:17PM 43.1550 -75.9525 273° West 405 466 30,000  Level Boston Center
01:19PM 43.1547 -76.2569 270° West 398 458 30,000  Level Cleveland Center
01:20PM 43.1433 -76.4058 264° West 398 458 30,000  Level Cleveland Center
01:21PM 43.1300 -76.5575 263° West 403 464 30,000  Level Cleveland Center
01:22PM 43.1194 -76.6750 263° West 403 464 30,000  Level Cleveland Center
01:23PM 43.1047 -76.8550 264° West 403 464 30,000  Level Cleveland Center
01:24PM 43.0906 -77.0036 263° West 403 464 30,000  Level Cleveland Center
01:25PM 43.0764 -77.1525 263° West 403 464 30,000  Level Cleveland Center
01:26PM 43.0656 -77.2894 264° West 408 470 30,000  Level Cleveland Center
01:27PM 43.0511 -77.4381 262° West 408 470 30,000  Level Cleveland Center
01:28PM 43.0364 -77.5894 262° West 408 470 30,000  Level Cleveland Center
01:29PM 43.0214 -77.7378 262° West 408 470 30,000  Level Cleveland Center
01:30PM 43.0061 -77.8889 262° West 408 470 30,000  Level Cleveland Center
01:31PM 42.9928 -78.0372 263° West 408 470 30,000  Level Cleveland Center
01:32PM 42.9772 -78.1853 262° West 408 470 30,000  Level Cleveland Center
01:33PM 42.9636 -78.3392 263° West 408 470 30,000  Level Cleveland Center
01:34PM 42.9478 -78.4872 262° West 408 470 30,000  Level Cleveland Center
01:35PM 42.9317 -78.6381 262° West 408 470 30,000  Level Cleveland Center
01:36PM 42.9111 -78.7861 259° West 407 468 30,000  Level Cleveland Center
01:37PM 42.8903 -78.9311 259° West 407 468 30,000  Level Cleveland Center
01:38PM 42.8672 -79.0792 258° West 402 463 30,000  Level Cleveland Center
01:39PM 42.8461 -79.2211 259° West 397 457 30,000  Level Cleveland Center
01:40PM 42.8289 -79.3717 261° West 397 457 30,000  Level Cleveland Center
01:41PM 42.8053 -79.5136 257° West 392 451 30,000  Level Cleveland Center
01:42PM 42.7817 -79.6611 258° West 392 451 30,000  Level Cleveland Center
01:43PM 42.7619 -79.8056 260° West 392 451 30,000 -60 Level Cleveland Center
01:44PM 42.7503 -79.9442 264° West 392 451 29,900 -660 Descending Cleveland Center
01:45PM 42.7406 -80.0969 265° West 387 445 28,700 -960 Descending Cleveland Center
01:46PM 42.7347 -80.2300 267° West 363 418 28,000 -360 Descending Cleveland Center
01:47PM 42.7308 -80.3600 268° West 363 418 28,000  Level Cleveland Center
01:48PM 42.7228 -80.4956 265° West 363 418 28,000  Level Cleveland Center
01:49PM 42.7186 -80.6256 268° West 358 412 28,000  Level Cleveland Center
01:50PM 42.7144 -80.7583 268° West 353 406 28,000 -240 Level Cleveland Center
01:51PM 42.7058 -80.8911 265° West 353 406 27,600 -720 Descending Cleveland Center
01:52PM 42.6908 -81.0211 261° West 353 406 26,600 -900 Descending Cleveland Center
01:53PM 42.6778 -81.1367 261° West 348 400 25,800 -900 Descending Cleveland Center
01:54PM 42.6667 -81.2581 263° West 348 400 24,800 -900 Descending Cleveland Center
01:55PM 42.6511 -81.3878 261° West 348 400 24,000 -420 Descending Cleveland Center
01:56PM 42.6336 -81.5200 260° West 353 406 24,000 -300 Level Cleveland Center
01:57PM 42.6200 -81.6497 262° West 353 406 23,400 -1,200 Descending Cleveland Center
01:58PM 42.6042 -81.7792 261° West 348 400 21,700 -1,800 Descending Cleveland Center
01:59PM 42.5858 -81.9142 260° West 348 400 19,900 -1,800 Descending Cleveland Center
02:00PM 42.5697 -82.0436 260° West 348 400 18,200 -1,500 Descending Cleveland Center
02:01PM 42.5556 -82.1672 261° West 348 400 17,000 -1,380 Descending Cleveland Center
02:01PM 42.5483 -82.2292 261° West 330 380 16,100 -1,740 Descending Cleveland Center
02:02PM 42.5392 -82.2853 258° West 348 400 15,300 -1,800 Descending Cleveland Center
02:02PM 42.5317 -82.3694 263° West 321 369 14,100 -1,740 Descending Cleveland Center
02:03PM 42.5250 -82.4031 255° West 332 382 13,600 -1,740 Descending Cleveland Center
02:03PM 42.5153 -82.4958 262° West 302 348 12,200 -1,020 Descending Cleveland Center
02:04PM 42.4992 -82.5742 254° West 266 306 12,000 -180 Descending Cleveland Center
02:05PM 42.4839 -82.6103 240° Southwest 289 333 12,000  Level Cleveland Center
02:05PM 42.4600 -82.6631 238° Southwest 278 320 12,000  Level Cleveland Center
02:06PM 42.4428 -82.7019 239° Southwest 284 327 12,000 -840 Level Cleveland Center
02:06PM 42.4147 -82.7572 236° Southwest 280 322 11,200 -1,140 Descending Cleveland Center
02:07PM 42.4017 -82.7847 237° Southwest 284 327 10,900 -1,140 Descending Cleveland Center
02:07PM 42.3775 -82.8403 240° Southwest 240 276 10,100 -1,320 Descending Cleveland Center
02:08PM 42.3667 -82.8650 239° Southwest 271 312 9,600 -2,040 Descending Cleveland Center
02:08PM 42.3428 -82.9147 237° Southwest 238 274 8,000 2,400 Descending Cleveland Center
02:09PM 42.3339 -82.9397 244° Southwest 254 292 12,000 -840 Climbing Cleveland Center
02:10PM 42.3492 -83.0078 287° West 213 245 7,000 -3,000 Descending Cleveland Center
02:11PM 42.3894 -83.0739 310° West 200 230 6,000 -600 Descending Cleveland Center
02:11PM 42.4156 -83.1144 311° West 165 190 5,900 -600 Descending Cleveland Center
02:13PM 42.4164 -83.1764 271° West 171 197 5,000 -780 Descending Cleveland Center
02:14PM 42.3778 -83.2197 220° Southwest 176 203 4,400 -600 Descending Cleveland Center